Time,TemperatureF,DewpointF,PressureIn,WindDirection,WindDirectionDegrees,WindSpeedMPH,WindSpeedGustMPH,Humidity,HourlyPrecipIn,Conditions,Clouds,dailyrainin,SoftwareType,DateUTC
2013-10-29 00:00:00,37.6,34.9,30.32,NW,317,0.0,0.0,90,0.00,,,0.00,Wunderground v.1.15,2013-10-29 04:00:00,
2013-10-29 00:05:00,37.8,35.1,30.32,NW,317,0.0,0.0,90,0.00,,,0.00,Wunderground v.1.15,2013-10-29 04:05:00,
2013-10-29 00:10:00,37.9,35.2,30.32,NW,317,0.0,0.0,90,0.00,,,0.00,Wunderground v.1.15,2013-10-29 04:10:00,
2013-10-29 00:15:00,38.1,35.4,30.32,NW,317,0.0,0.0,90,0.00,,,0.00,Wunderground v.1.15,2013-10-29 04:15:00,
2013-10-29 00:24:00,38.4,35.7,30.31,NW,317,1.0,2.0,90,0.00,,,0.00,Wunderground v.1.15,2013-10-29 04:24:00,
2013-10-29 00:29:00,38.0,35.3,30.31,NW,317,0.0,0.0,90,0.00,,,0.00,Wunderground v.1.15,2013-10-29 04:29:00,
2013-10-29 00:34:00,38.1,35.4,30.32,NW,317,0.0,0.0,90,0.00,,,0.00,Wunderground v.1.15,2013-10-29 04:34:00,
2013-10-29 00:39:00,38.3,35.6,30.32,NW,317,0.0,0.0,90,0.00,,,0.00,Wunderground v.1.15,2013-10-29 04:39:00,
2013-10-29 00:45:00,38.2,35.5,30.32,NW,317,0.0,0.0,90,0.00,,,0.00,Wunderground v.1.15,2013-10-29 04:45:00,
2013-10-29 00:50:00,38.0,35.3,30.32,NW,317,1.0,1.0,90,0.00,,,0.00,Wunderground v.1.15,2013-10-29 04:50:00,
2013-10-29 00:55:00,37.8,35.1,30.32,NW,317,0.0,1.0,90,0.00,,,0.00,Wunderground v.1.15,2013-10-29 04:55:00,
2013-10-29 01:00:00,37.4,34.7,30.32,NW,317,1.0,5.0,90,0.00,,,0.00,Wunderground v.1.15,2013-10-29 05:00:00,
2013-10-29 01:05:00,37.2,34.5,30.32,NW,317,4.0,5.0,90,0.00,,,0.00,Wunderground v.1.15,2013-10-29 05:05:00,
2013-10-29 01:10:00,37.3,34.6,30.32,NW,317,5.0,5.0,90,0.00,,,0.00,Wunderground v.1.15,2013-10-29 05:10:00,
2013-10-29 01:15:00,37.6,34.9,30.32,NW,317,5.0,6.0,90,0.00,,,0.00,Wunderground v.1.15,2013-10-29 05:15:00,
2013-10-29 01:24:00,37.1,34.4,30.33,NW,317,3.0,5.0,90,0.00,,,0.00,Wunderground v.1.15,2013-10-29 05:24:00,
2013-10-29 01:30:00,36.9,34.2,30.33,NW,317,1.0,1.0,90,0.00,,,0.00,Wunderground v.1.15,2013-10-29 05:30:00,
2013-10-29 01:35:00,36.9,34.2,30.33,NW,317,0.0,1.0,90,0.00,,,0.00,Wunderground v.1.15,2013-10-29 05:35:00,
2013-10-29 01:40:00,36.8,34.1,30.33,NW,317,1.0,1.0,90,0.00,,,0.00,Wunderground v.1.15,2013-10-29 05:40:00,
2013-10-29 01:45:00,35.8,33.2,30.33,NW,317,3.0,3.0,90,0.00,,,0.00,Wunderground v.1.15,2013-10-29 05:45:00,
2013-10-29 01:50:00,35.2,32.6,30.34,NW,317,3.0,4.0,90,0.00,,,0.00,Wunderground v.1.15,2013-10-29 05:50:00,
2013-10-29 01:59:00,36.3,33.6,30.34,NW,317,4.0,4.0,90,0.00,,,0.00,Wunderground v.1.15,2013-10-29 05:59:00,
2013-10-29 02:05:00,36.6,33.9,30.34,NW,317,2.0,4.0,90,0.00,,,0.00,Wunderground v.1.15,2013-10-29 06:05:00,
2013-10-29 02:10:00,36.8,34.4,30.34,NW,317,0.0,0.0,91,0.00,,,0.00,Wunderground v.1.15,2013-10-29 06:10:00,
2013-10-29 02:15:00,36.9,34.2,30.33,NW,317,0.0,0.0,90,0.00,,,0.00,Wunderground v.1.15,2013-10-29 06:15:00,
2013-10-29 02:25:00,37.6,34.9,30.33,NW,317,0.0,0.0,90,0.00,,,0.00,Wunderground v.1.15,2013-10-29 06:25:00,
2013-10-29 02:34:00,38.2,35.8,30.33,NW,317,0.0,0.0,91,0.00,,,0.00,Wunderground v.1.15,2013-10-29 06:34:00,
2013-10-29 02:40:00,38.4,35.7,30.33,NW,317,0.0,0.0,90,0.00,,,0.00,Wunderground v.1.15,2013-10-29 06:40:00,
2013-10-29 02:44:00,38.4,35.7,30.34,NW,317,0.0,0.0,90,0.00,,,0.00,Wunderground v.1.15,2013-10-29 06:44:00,
2013-10-29 02:50:00,38.4,35.7,30.34,NW,317,0.0,0.0,90,0.00,,,0.00,Wunderground v.1.15,2013-10-29 06:50:00,
2013-10-29 03:00:00,38.6,35.9,30.34,NW,317,0.0,0.0,90,0.00,,,0.00,Wunderground v.1.15,2013-10-29 07:00:00,
2013-10-29 03:05:00,38.5,35.8,30.34,NW,317,0.0,0.0,90,0.00,,,0.00,Wunderground v.1.15,2013-10-29 07:05:00,
2013-10-29 03:10:00,38.6,35.9,30.34,NW,317,0.0,0.0,90,0.00,,,0.00,Wunderground v.1.15,2013-10-29 07:10:00,
2013-10-29 03:15:00,38.6,36.2,30.34,NW,317,0.0,0.0,91,0.00,,,0.00,Wunderground v.1.15,2013-10-29 07:15:00,
2013-10-29 03:20:00,38.7,36.3,30.34,NW,317,0.0,0.0,91,0.00,,,0.00,Wunderground v.1.15,2013-10-29 07:20:00,
2013-10-29 03:25:00,39.0,36.3,30.34,NW,317,0.0,0.0,90,0.00,,,0.00,Wunderground v.1.15,2013-10-29 07:25:00,
2013-10-29 03:30:00,39.2,36.5,30.34,NW,317,0.0,0.0,90,0.00,,,0.00,Wunderground v.1.15,2013-10-29 07:30:00,
2013-10-29 03:39:00,39.6,36.9,30.34,NW,317,0.0,0.0,90,0.00,,,0.00,Wunderground v.1.15,2013-10-29 07:39:00,
2013-10-29 03:45:00,39.7,37.0,30.34,NW,317,0.0,0.0,90,0.00,,,0.00,Wunderground v.1.15,2013-10-29 07:45:00,
2013-10-29 03:50:00,39.9,37.2,30.34,NW,317,0.0,0.0,90,0.00,,,0.00,Wunderground v.1.15,2013-10-29 07:50:00,
2013-10-29 03:55:00,40.1,37.7,30.34,NW,317,0.0,0.0,91,0.00,,,0.00,Wunderground v.1.15,2013-10-29 07:55:00,
2013-10-29 04:00:00,40.6,38.2,30.34,NW,317,1.0,1.0,91,0.00,,,0.00,Wunderground v.1.15,2013-10-29 08:00:00,
2013-10-29 04:05:00,40.6,38.2,30.33,NW,317,2.0,5.0,91,0.00,,,0.00,Wunderground v.1.15,2013-10-29 08:05:00,
2013-10-29 04:10:00,40.4,37.7,30.33,NE,41,3.0,5.0,90,0.00,,,0.00,Wunderground v.1.15,2013-10-29 08:10:00,
2013-10-29 04:19:00,39.4,36.7,30.33,NE,42,4.0,5.0,90,0.00,,,0.00,Wunderground v.1.15,2013-10-29 08:19:00,
2013-10-29 04:24:00,39.1,36.4,30.33,NE,42,4.0,5.0,90,0.00,,,0.00,Wunderground v.1.15,2013-10-29 08:24:00,
2013-10-29 04:30:00,38.9,36.2,30.33,NE,42,4.0,4.0,90,0.00,,,0.00,Wunderground v.1.15,2013-10-29 08:30:00,
2013-10-29 04:35:00,38.7,36.0,30.34,NE,42,4.0,4.0,90,0.00,,,0.00,Wunderground v.1.15,2013-10-29 08:35:00,
2013-10-29 04:40:00,38.8,36.4,30.33,NE,42,4.0,4.0,91,0.00,,,0.00,Wunderground v.1.15,2013-10-29 08:40:00,
2013-10-29 04:45:00,39.1,36.4,30.34,NE,42,3.0,4.0,90,0.00,,,0.00,Wunderground v.1.15,2013-10-29 08:45:00,
2013-10-29 04:50:00,39.3,36.9,30.34,NE,42,2.0,2.0,91,0.00,,,0.00,Wunderground v.1.15,2013-10-29 08:50:00,
2013-10-29 04:55:00,39.3,36.9,30.34,NE,42,1.0,2.0,91,0.00,,,0.00,Wunderground v.1.15,2013-10-29 08:55:00,
2013-10-29 05:00:00,39.2,36.5,30.34,NE,42,0.0,0.0,90,0.00,,,0.00,Wunderground v.1.15,2013-10-29 09:00:00,
2013-10-29 05:05:00,39.0,36.3,30.34,NE,42,0.0,0.0,90,0.00,,,0.00,Wunderground v.1.15,2013-10-29 09:05:00,
2013-10-29 05:15:00,38.7,36.0,30.34,NE,42,0.0,0.0,90,0.00,,,0.00,Wunderground v.1.15,2013-10-29 09:15:00,
2013-10-29 05:25:00,38.5,35.8,30.34,NE,42,0.0,0.0,90,0.00,,,0.00,Wunderground v.1.15,2013-10-29 09:25:00,
2013-10-29 05:30:00,38.2,35.5,30.34,NE,42,0.0,0.0,90,0.00,,,0.00,Wunderground v.1.15,2013-10-29 09:30:00,
2013-10-29 05:35:00,38.2,35.5,30.34,NE,42,0.0,0.0,90,0.00,,,0.00,Wunderground v.1.15,2013-10-29 09:35:00,
2013-10-29 05:40:00,38.2,35.8,30.34,NE,42,0.0,0.0,91,0.00,,,0.00,Wunderground v.1.15,2013-10-29 09:40:00,
2013-10-29 05:50:00,38.2,35.8,30.34,NE,42,0.0,0.0,91,0.00,,,0.00,Wunderground v.1.15,2013-10-29 09:50:00,
2013-10-29 05:55:00,38.3,35.9,30.35,NE,42,0.0,0.0,91,0.00,,,0.00,Wunderground v.1.15,2013-10-29 09:55:00,
2013-10-29 06:00:00,38.0,35.6,30.35,NE,42,0.0,0.0,91,0.00,,,0.00,Wunderground v.1.15,2013-10-29 10:00:00,
2013-10-29 06:05:00,37.8,35.1,30.35,NE,42,0.0,0.0,90,0.00,,,0.00,Wunderground v.1.15,2013-10-29 10:05:00,
2013-10-29 06:10:00,37.9,35.2,30.35,NE,42,0.0,0.0,90,0.00,,,0.00,Wunderground v.1.15,2013-10-29 10:10:00,
2013-10-29 06:20:00,37.5,35.1,30.36,NE,42,0.0,0.0,91,0.00,,,0.00,Wunderground v.1.15,2013-10-29 10:20:00,
2013-10-29 06:25:00,37.5,35.1,30.36,NE,42,0.0,0.0,91,0.00,,,0.00,Wunderground v.1.15,2013-10-29 10:25:00,
2013-10-29 06:35:00,37.3,34.6,30.36,NE,42,1.0,2.0,90,0.00,,,0.00,Wunderground v.1.15,2013-10-29 10:35:00,
2013-10-29 06:40:00,37.2,34.5,30.36,NE,42,1.0,2.0,90,0.00,,,0.00,Wunderground v.1.15,2013-10-29 10:40:00,
2013-10-29 06:45:00,37.1,34.7,30.36,NE,42,1.0,3.0,91,0.00,,,0.00,Wunderground v.1.15,2013-10-29 10:45:00,
2013-10-29 06:50:00,37.1,34.7,30.37,NE,42,1.0,1.0,91,0.00,,,0.00,Wunderground v.1.15,2013-10-29 10:50:00,
2013-10-29 07:00:00,37.1,34.7,30.36,NE,42,0.0,0.0,91,0.00,,,0.00,Wunderground v.1.15,2013-10-29 11:00:00,
2013-10-29 07:05:00,37.1,34.7,30.37,NE,42,0.0,0.0,91,0.00,,,0.00,Wunderground v.1.15,2013-10-29 11:05:00,
2013-10-29 07:10:00,37.1,34.7,30.37,NE,42,0.0,2.0,91,0.00,,,0.00,Wunderground v.1.15,2013-10-29 11:10:00,
2013-10-29 07:15:00,36.6,33.9,30.37,NE,42,1.0,2.0,90,0.00,,,0.00,Wunderground v.1.15,2013-10-29 11:15:00,
2013-10-29 07:20:00,36.4,33.7,30.36,NE,42,0.0,0.0,90,0.00,,,0.00,Wunderground v.1.15,2013-10-29 11:20:00,
2013-10-29 07:25:00,36.4,34.0,30.36,NE,42,0.0,0.0,91,0.00,,,0.00,Wunderground v.1.15,2013-10-29 11:25:00,
2013-10-29 07:35:00,37.0,34.6,30.37,NE,42,0.0,0.0,91,0.00,,,0.00,Wunderground v.1.15,2013-10-29 11:35:00,
2013-10-29 07:40:00,37.2,34.8,30.37,NE,42,0.0,0.0,91,0.00,,,0.00,Wunderground v.1.15,2013-10-29 11:40:00,
2013-10-29 07:50:00,37.4,35.0,30.37,NE,42,0.0,0.0,91,0.00,,,0.00,Wunderground v.1.15,2013-10-29 11:50:00,
2013-10-29 07:55:00,37.5,35.1,30.37,NE,42,0.0,0.0,91,0.00,,,0.00,Wunderground v.1.15,2013-10-29 11:55:00,
2013-10-29 08:00:00,37.4,35.0,30.37,NW,308,0.0,0.0,91,0.00,,,0.00,Wunderground v.1.15,2013-10-29 12:00:00,
2013-10-29 08:05:00,37.4,35.0,30.37,NW,308,0.0,0.0,91,0.00,,,0.00,Wunderground v.1.15,2013-10-29 12:05:00,
2013-10-29 08:10:00,37.4,35.0,30.37,NW,308,0.0,0.0,91,0.00,,,0.00,Wunderground v.1.15,2013-10-29 12:10:00,
2013-10-29 08:15:00,37.4,35.0,30.37,NW,308,0.0,0.0,91,0.00,,,0.00,Wunderground v.1.15,2013-10-29 12:15:00,
2013-10-29 08:20:00,37.3,34.9,30.37,NW,308,0.0,0.0,91,0.00,,,0.00,Wunderground v.1.15,2013-10-29 12:20:00,
2013-10-29 08:25:00,37.4,35.0,30.37,NW,308,0.0,0.0,91,0.00,,,0.00,Wunderground v.1.15,2013-10-29 12:25:00,
2013-10-29 08:35:00,37.4,35.0,30.37,NW,308,0.0,0.0,91,0.00,,,0.00,Wunderground v.1.15,2013-10-29 12:35:00,
2013-10-29 08:45:00,37.6,35.2,30.38,NW,308,0.0,0.0,91,0.00,,,0.00,Wunderground v.1.15,2013-10-29 12:45:00,
2013-10-29 08:50:00,38.3,35.9,30.38,NW,308,0.0,0.0,91,0.00,,,0.00,Wunderground v.1.15,2013-10-29 12:50:00,
2013-10-29 08:59:00,39.4,37.0,30.38,NW,308,0.0,0.0,91,0.00,,,0.00,Wunderground v.1.15,2013-10-29 12:59:00,
2013-10-29 09:05:00,39.9,37.2,30.38,NW,308,1.0,4.0,90,0.00,,,0.00,Wunderground v.1.15,2013-10-29 13:05:00,
2013-10-29 09:10:00,40.2,37.8,30.38,NW,308,2.0,2.0,91,0.00,,,0.00,Wunderground v.1.15,2013-10-29 13:10:00,
2013-10-29 09:15:00,40.7,38.3,30.38,NW,308,2.0,2.0,91,0.00,,,0.00,Wunderground v.1.15,2013-10-29 13:15:00,
2013-10-29 09:20:00,41.6,39.2,30.39,NW,308,2.0,2.0,91,0.00,,,0.00,Wunderground v.1.15,2013-10-29 13:20:00,
2013-10-29 09:30:00,42.7,40.3,30.39,NW,308,3.0,4.0,91,0.00,,,0.00,Wunderground v.1.15,2013-10-29 13:30:00,
2013-10-29 09:35:00,43.2,40.5,30.39,NW,308,4.0,4.0,90,0.00,,,0.00,Wunderground v.1.15,2013-10-29 13:35:00,
2013-10-29 09:40:00,43.7,41.0,30.39,NW,308,5.0,5.0,90,0.00,,,0.00,Wunderground v.1.15,2013-10-29 13:40:00,
2013-10-29 09:45:00,44.2,41.5,30.39,NW,307,5.0,5.0,90,0.00,,,0.00,Wunderground v.1.15,2013-10-29 13:45:00,
2013-10-29 09:55:00,45.6,42.8,30.39,West,271,5.0,5.0,90,0.00,,,0.00,Wunderground v.1.15,2013-10-29 13:55:00,
2013-10-29 10:00:00,46.3,43.5,30.39,SW,232,5.0,5.0,90,0.00,,,0.00,Wunderground v.1.15,2013-10-29 14:00:00,
2013-10-29 10:10:00,47.7,44.6,30.38,SW,229,5.0,5.0,89,0.00,,,0.00,Wunderground v.1.15,2013-10-29 14:10:00,
2013-10-29 10:15:00,48.3,45.2,30.38,SW,229,4.0,5.0,89,0.00,,,0.00,Wunderground v.1.15,2013-10-29 14:15:00,
2013-10-29 10:20:00,48.9,45.5,30.37,WNW,282,3.0,3.0,88,0.00,,,0.00,Wunderground v.1.15,2013-10-29 14:20:00,
2013-10-29 10:25:00,49.6,45.6,30.37,SSW,206,2.0,3.0,86,0.00,,,0.00,Wunderground v.1.15,2013-10-29 14:25:00,
2013-10-29 10:30:00,50.4,45.4,30.37,SSW,206,3.0,4.0,83,0.00,,,0.00,Wunderground v.1.15,2013-10-29 14:30:00,
2013-10-29 10:40:00,51.5,45.2,30.36,SSW,198,5.0,8.0,79,0.00,,,0.00,Wunderground v.1.15,2013-10-29 14:40:00,
2013-10-29 10:50:00,52.3,45.0,30.36,SSW,207,7.0,7.0,76,0.00,,,0.00,Wunderground v.1.15,2013-10-29 14:50:00,
2013-10-29 10:55:00,52.5,45.2,30.37,SSW,213,7.0,8.0,76,0.00,,,0.00,Wunderground v.1.15,2013-10-29 14:55:00,
2013-10-29 11:00:00,52.7,45.3,30.36,SW,219,8.0,10.0,76,0.00,,,0.00,Wunderground v.1.15,2013-10-29 15:00:00,
2013-10-29 11:05:00,52.8,45.1,30.36,SSW,210,8.0,10.0,75,0.00,,,0.00,Wunderground v.1.15,2013-10-29 15:05:00,
2013-10-29 11:10:00,52.9,43.7,30.36,SSW,213,8.0,8.0,71,0.00,,,0.00,Wunderground v.1.15,2013-10-29 15:10:00,
2013-10-29 11:19:00,53.3,44.1,30.36,SSW,192,7.0,7.0,71,0.00,,,0.00,Wunderground v.1.15,2013-10-29 15:19:00,
2013-10-29 11:25:00,53.7,44.1,30.36,SSE,154,7.0,7.0,70,0.00,,,0.00,Wunderground v.1.15,2013-10-29 15:25:00,
2013-10-29 11:30:00,54.0,44.8,30.36,SSE,154,6.0,6.0,71,0.00,,,0.00,Wunderground v.1.15,2013-10-29 15:30:00,
2013-10-29 11:35:00,54.5,45.3,30.36,SW,217,6.0,8.0,71,0.00,,,0.00,Wunderground v.1.15,2013-10-29 15:35:00,
2013-10-29 11:40:00,54.6,44.6,30.36,SW,226,6.0,6.0,69,0.00,,,0.00,Wunderground v.1.15,2013-10-29 15:40:00,
2013-10-29 11:45:00,54.8,44.8,30.36,WSW,244,5.0,6.0,69,0.00,,,0.00,Wunderground v.1.15,2013-10-29 15:45:00,
2013-10-29 11:54:00,55.1,44.3,30.35,South,174,5.0,7.0,67,0.00,,,0.00,Wunderground v.1.15,2013-10-29 15:54:00,
2013-10-29 12:00:00,55.5,44.7,30.36,SSW,211,6.0,7.0,67,0.00,,,0.00,Wunderground v.1.15,2013-10-29 16:00:00,
2013-10-29 12:05:00,55.7,44.9,30.35,SSW,200,8.0,10.0,67,0.00,,,0.00,Wunderground v.1.15,2013-10-29 16:05:00,
2013-10-29 12:10:00,55.6,43.6,30.35,SSW,200,8.0,8.0,64,0.00,,,0.00,Wunderground v.1.15,2013-10-29 16:10:00,
2013-10-29 12:15:00,55.6,43.2,30.35,South,181,5.0,8.0,63,0.00,,,0.00,Wunderground v.1.15,2013-10-29 16:15:00,
2013-10-29 12:20:00,56.0,44.0,30.35,South,181,3.0,7.0,64,0.00,,,0.00,Wunderground v.1.15,2013-10-29 16:20:00,
2013-10-29 12:30:00,56.6,43.7,30.34,South,171,6.0,6.0,62,0.00,,,0.00,Wunderground v.1.15,2013-10-29 16:30:00,
2013-10-29 12:35:00,56.8,44.3,30.34,SSW,198,6.0,6.0,63,0.00,,,0.00,Wunderground v.1.15,2013-10-29 16:35:00,
2013-10-29 12:40:00,57.0,42.8,30.34,SSW,194,6.0,6.0,59,0.00,,,0.00,Wunderground v.1.15,2013-10-29 16:40:00,
2013-10-29 12:45:00,57.3,43.5,30.34,SSE,167,6.0,6.0,60,0.00,,,0.00,Wunderground v.1.15,2013-10-29 16:45:00,
2013-10-29 12:50:00,57.8,44.4,30.34,SW,227,5.0,11.0,61,0.00,,,0.00,Wunderground v.1.15,2013-10-29 16:50:00,
2013-10-29 12:55:00,57.8,44.0,30.34,SSW,212,5.0,11.0,60,0.00,,,0.00,Wunderground v.1.15,2013-10-29 16:55:00,
2013-10-29 13:05:00,58.3,43.6,30.33,SSW,200,3.0,8.0,58,0.00,,,0.00,Wunderground v.1.15,2013-10-29 17:05:00,
2013-10-29 13:10:00,58.4,43.7,30.33,South,188,6.0,6.0,58,0.00,,,0.00,Wunderground v.1.15,2013-10-29 17:10:00,
2013-10-29 13:15:00,58.5,44.2,30.33,South,178,7.0,7.0,59,0.00,,,0.00,Wunderground v.1.15,2013-10-29 17:15:00,
2013-10-29 13:25:00,59.3,44.5,30.32,SSW,196,7.0,8.0,58,0.00,,,0.00,Wunderground v.1.15,2013-10-29 17:25:00,
2013-10-29 13:35:00,59.2,44.4,30.32,South,190,7.0,8.0,58,0.00,,,0.00,Wunderground v.1.15,2013-10-29 17:35:00,
2013-10-29 13:40:00,59.3,44.1,30.31,SSW,192,8.0,8.0,57,0.00,,,0.00,Wunderground v.1.15,2013-10-29 17:40:00,
2013-10-29 13:45:00,59.4,43.7,30.32,SSW,202,8.0,8.0,56,0.00,,,0.00,Wunderground v.1.15,2013-10-29 17:45:00,
2013-10-29 13:55:00,59.9,43.7,30.31,SE,140,5.0,7.0,55,0.00,,,0.00,Wunderground v.1.15,2013-10-29 17:55:00,
2013-10-29 14:00:00,60.3,45.0,30.31,South,191,6.0,13.0,57,0.00,,,0.00,Wunderground v.1.15,2013-10-29 18:00:00,
2013-10-29 14:05:00,60.6,42.9,30.31,SSW,208,6.0,13.0,52,0.00,,,0.00,Wunderground v.1.15,2013-10-29 18:05:00,
2013-10-29 14:15:00,60.9,42.6,30.31,SSW,208,8.0,9.0,51,0.00,,,0.00,Wunderground v.1.15,2013-10-29 18:15:00,
2013-10-29 14:20:00,61.1,43.3,30.31,SSW,196,8.0,11.0,52,0.00,,,0.00,Wunderground v.1.15,2013-10-29 18:20:00,
2013-10-29 14:25:00,61.2,43.9,30.31,SSW,207,9.0,11.0,53,0.00,,,0.00,Wunderground v.1.15,2013-10-29 18:25:00,
2013-10-29 14:30:00,61.4,43.6,30.30,SW,214,8.0,11.0,52,0.00,,,0.00,Wunderground v.1.15,2013-10-29 18:30:00,
2013-10-29 14:35:00,61.3,42.0,30.30,SW,215,6.0,11.0,49,0.00,,,0.00,Wunderground v.1.15,2013-10-29 18:35:00,
2013-10-29 14:40:00,61.7,42.9,30.30,South,187,5.0,8.0,50,0.00,,,0.00,Wunderground v.1.15,2013-10-29 18:40:00,
2013-10-29 14:45:00,61.6,43.3,30.30,SSE,168,6.0,10.0,51,0.00,,,0.00,Wunderground v.1.15,2013-10-29 18:45:00,
2013-10-29 14:50:00,61.5,43.7,30.29,SSW,193,7.0,10.0,52,0.00,,,0.00,Wunderground v.1.15,2013-10-29 18:50:00,
2013-10-29 15:00:00,61.6,42.8,30.29,SSW,200,6.0,10.0,50,0.00,,,0.00,Wunderground v.1.15,2013-10-29 19:00:00,
2013-10-29 15:05:00,61.6,43.8,30.29,SW,215,7.0,10.0,52,0.00,,,0.00,Wunderground v.1.15,2013-10-29 19:05:00,
2013-10-29 15:10:00,61.3,42.5,30.29,SSW,201,9.0,9.0,50,0.00,,,0.00,Wunderground v.1.15,2013-10-29 19:10:00,
2013-10-29 15:19:00,61.3,43.5,30.29,SSW,209,8.0,8.0,52,0.00,,,0.00,Wunderground v.1.15,2013-10-29 19:19:00,
2013-10-29 15:25:00,61.5,43.2,30.29,SSE,163,7.0,8.0,51,0.00,,,0.00,Wunderground v.1.15,2013-10-29 19:25:00,
2013-10-29 15:30:00,61.5,43.7,30.29,South,186,8.0,8.0,52,0.00,,,0.00,Wunderground v.1.15,2013-10-29 19:30:00,
2013-10-29 15:35:00,61.4,42.1,30.29,South,187,7.0,8.0,49,0.00,,,0.00,Wunderground v.1.15,2013-10-29 19:35:00,
2013-10-29 15:40:00,61.5,43.7,30.29,SSW,201,5.0,9.0,52,0.00,,,0.00,Wunderground v.1.15,2013-10-29 19:40:00,
2013-10-29 15:49:00,61.4,44.6,30.29,SSW,213,7.0,7.0,54,0.00,,,0.00,Wunderground v.1.15,2013-10-29 19:49:00,
2013-10-29 15:59:00,61.1,44.3,30.29,SSW,204,8.0,9.0,54,0.00,,,0.00,Wunderground v.1.15,2013-10-29 19:59:00,
2013-10-29 16:04:00,60.9,44.6,30.29,SSW,213,8.0,9.0,55,0.00,,,0.00,Wunderground v.1.15,2013-10-29 20:04:00,
2013-10-29 16:10:00,60.7,44.4,30.28,SW,219,8.0,10.0,55,0.00,,,0.00,Wunderground v.1.15,2013-10-29 20:10:00,
2013-10-29 16:20:00,60.2,44.9,30.29,SSW,213,8.0,8.0,57,0.00,,,0.00,Wunderground v.1.15,2013-10-29 20:20:00,
2013-10-29 16:25:00,60.1,43.9,30.29,SSW,213,7.0,9.0,55,0.00,,,0.00,Wunderground v.1.15,2013-10-29 20:25:00,
2013-10-29 16:30:00,60.0,44.7,30.28,SW,217,8.0,9.0,57,0.00,,,0.00,Wunderground v.1.15,2013-10-29 20:30:00,
2013-10-29 16:35:00,59.9,45.5,30.28,SW,216,9.0,9.0,59,0.00,,,0.00,Wunderground v.1.15,2013-10-29 20:35:00,
2013-10-29 16:44:00,59.6,44.8,30.28,SW,218,8.0,9.0,58,0.00,,,0.00,Wunderground v.1.15,2013-10-29 20:44:00,
2013-10-29 16:49:00,59.3,45.0,30.28,SW,215,9.0,9.0,59,0.00,,,0.00,Wunderground v.1.15,2013-10-29 20:49:00,
2013-10-29 16:55:00,59.0,45.1,30.28,SW,218,9.0,9.0,60,0.00,,,0.00,Wunderground v.1.15,2013-10-29 20:55:00,
2013-10-29 17:00:00,58.7,45.3,30.29,SSW,210,9.0,9.0,61,0.00,,,0.00,Wunderground v.1.15,2013-10-29 21:00:00,
2013-10-29 17:05:00,58.5,45.5,30.28,SSW,211,8.0,9.0,62,0.00,,,0.00,Wunderground v.1.15,2013-10-29 21:05:00,
2013-10-29 17:10:00,58.2,45.2,30.29,SW,217,8.0,10.0,62,0.00,,,0.00,Wunderground v.1.15,2013-10-29 21:10:00,
2013-10-29 17:19:00,57.6,45.1,30.29,SSW,206,9.0,9.0,63,0.00,,,0.00,Wunderground v.1.15,2013-10-29 21:19:00,
2013-10-29 17:24:00,57.5,45.0,30.29,SSW,206,7.0,9.0,63,0.00,,,0.00,Wunderground v.1.15,2013-10-29 21:24:00,
2013-10-29 17:29:00,57.3,44.4,30.29,SSW,200,6.0,8.0,62,0.00,,,0.00,Wunderground v.1.15,2013-10-29 21:29:00,
2013-10-29 17:34:00,57.3,44.8,30.29,SSE,157,6.0,8.0,63,0.00,,,0.00,Wunderground v.1.15,2013-10-29 21:34:00,
2013-10-29 17:44:00,57.2,43.9,30.29,SSE,158,7.0,7.0,61,0.00,,,0.00,Wunderground v.1.15,2013-10-29 21:44:00,
2013-10-29 17:49:00,57.0,43.7,30.29,South,172,7.0,7.0,61,0.00,,,0.00,Wunderground v.1.15,2013-10-29 21:49:00,
2013-10-29 17:54:00,56.9,44.0,30.29,SSW,192,7.0,8.0,62,0.00,,,0.00,Wunderground v.1.15,2013-10-29 21:54:00,
2013-10-29 17:59:00,56.7,43.8,30.29,SSW,198,7.0,7.0,62,0.00,,,0.00,Wunderground v.1.15,2013-10-29 21:59:00,
2013-10-29 18:05:00,56.3,43.4,30.29,SSW,192,7.0,7.0,62,0.00,,,0.00,Wunderground v.1.15,2013-10-29 22:05:00,
2013-10-29 18:10:00,56.2,43.3,30.30,South,180,8.0,8.0,62,0.00,,,0.00,Wunderground v.1.15,2013-10-29 22:10:00,
2013-10-29 18:20:00,55.4,43.4,30.30,South,179,5.0,5.0,64,0.00,,,0.00,Wunderground v.1.15,2013-10-29 22:20:00,
2013-10-29 18:25:00,55.0,43.0,30.30,South,179,3.0,5.0,64,0.00,,,0.00,Wunderground v.1.15,2013-10-29 22:25:00,
2013-10-29 18:34:00,54.5,43.4,30.30,South,179,1.0,1.0,66,0.00,,,0.00,Wunderground v.1.15,2013-10-29 22:34:00,
2013-10-29 18:39:00,54.3,43.6,30.30,South,179,1.0,1.0,67,0.00,,,0.00,Wunderground v.1.15,2013-10-29 22:39:00,
2013-10-29 18:44:00,54.0,43.3,30.30,South,179,0.0,1.0,67,0.00,,,0.00,Wunderground v.1.15,2013-10-29 22:44:00,
2013-10-29 18:54:00,53.3,43.0,30.30,South,179,0.0,0.0,68,0.00,,,0.00,Wunderground v.1.15,2013-10-29 22:54:00,
2013-10-29 18:59:00,53.0,42.7,30.31,South,179,0.0,0.0,68,0.00,,,0.00,Wunderground v.1.15,2013-10-29 22:59:00,
2013-10-29 19:05:00,52.6,42.7,30.31,South,179,0.0,0.0,69,0.00,,,0.00,Wunderground v.1.15,2013-10-29 23:05:00,
2013-10-29 19:15:00,51.8,42.7,30.31,South,179,0.0,0.0,71,0.00,,,0.00,Wunderground v.1.15,2013-10-29 23:15:00,
2013-10-29 19:24:00,51.4,43.0,30.31,South,179,0.0,0.0,73,0.00,,,0.00,Wunderground v.1.15,2013-10-29 23:24:00,
2013-10-29 19:29:00,51.3,42.9,30.32,South,179,0.0,0.0,73,0.00,,,0.00,Wunderground v.1.15,2013-10-29 23:29:00,
2013-10-29 19:34:00,51.3,43.3,30.32,South,179,0.0,0.0,74,0.00,,,0.00,Wunderground v.1.15,2013-10-29 23:34:00,
2013-10-29 19:39:00,51.2,43.2,30.32,South,179,0.0,0.0,74,0.00,,,0.00,Wunderground v.1.15,2013-10-29 23:39:00,
2013-10-29 19:45:00,51.2,43.5,30.32,South,179,0.0,0.0,75,0.00,,,0.00,Wunderground v.1.15,2013-10-29 23:45:00,
2013-10-29 19:50:00,51.2,43.2,30.32,South,179,0.0,0.0,74,0.00,,,0.00,Wunderground v.1.15,2013-10-29 23:50:00,
2013-10-29 20:00:00,51.2,43.5,30.32,South,179,0.0,2.0,75,0.00,,,0.00,Wunderground v.1.15,2013-10-30 00:00:00,
2013-10-29 20:09:00,51.2,43.5,30.31,South,179,1.0,2.0,75,0.00,,,0.00,Wunderground v.1.15,2013-10-30 00:09:00,
2013-10-29 20:14:00,51.2,43.5,30.31,South,179,1.0,2.0,75,0.00,,,0.00,Wunderground v.1.15,2013-10-30 00:14:00,
2013-10-29 20:19:00,51.3,43.6,30.31,South,179,1.0,1.0,75,0.00,,,0.00,Wunderground v.1.15,2013-10-30 00:19:00,
2013-10-29 20:24:00,51.3,43.6,30.31,South,179,0.0,1.0,75,0.00,,,0.00,Wunderground v.1.15,2013-10-30 00:24:00,
2013-10-29 20:29:00,51.2,43.5,30.31,South,179,0.0,0.0,75,0.00,,,0.00,Wunderground v.1.15,2013-10-30 00:29:00,
2013-10-29 20:34:00,51.2,43.9,30.31,South,179,0.0,0.0,76,0.00,,,0.00,Wunderground v.1.15,2013-10-30 00:34:00,
2013-10-29 20:39:00,51.1,43.8,30.31,South,179,0.0,0.0,76,0.00,,,0.00,Wunderground v.1.15,2013-10-30 00:39:00,
2013-10-29 20:44:00,51.0,43.7,30.31,South,179,0.0,0.0,76,0.00,,,0.00,Wunderground v.1.15,2013-10-30 00:44:00,
2013-10-29 20:54:00,50.9,43.6,30.31,South,179,0.0,0.0,76,0.00,,,0.00,Wunderground v.1.15,2013-10-30 00:54:00,
2013-10-29 20:59:00,50.7,43.4,30.31,South,179,0.0,0.0,76,0.00,,,0.00,Wunderground v.1.15,2013-10-30 00:59:00,
2013-10-29 21:04:00,50.6,43.3,30.31,South,179,0.0,1.0,76,0.00,,,0.00,Wunderground v.1.15,2013-10-30 01:04:00,
2013-10-29 21:14:00,50.0,43.1,30.32,South,179,0.0,0.0,77,0.00,,,0.00,Wunderground v.1.15,2013-10-30 01:14:00,
2013-10-29 21:19:00,49.7,42.8,30.32,South,179,0.0,0.0,77,0.00,,,0.00,Wunderground v.1.15,2013-10-30 01:19:00,
2013-10-29 21:24:00,49.3,42.7,30.32,South,179,0.0,0.0,78,0.00,,,0.00,Wunderground v.1.15,2013-10-30 01:24:00,
2013-10-29 21:29:00,49.0,42.8,30.32,South,179,0.0,0.0,79,0.00,,,0.00,Wunderground v.1.15,2013-10-30 01:29:00,
2013-10-29 21:39:00,48.6,42.7,30.32,South,179,0.0,0.0,80,0.00,,,0.00,Wunderground v.1.15,2013-10-30 01:39:00,
2013-10-29 21:44:00,48.5,42.6,30.33,South,179,0.0,0.0,80,0.00,,,0.00,Wunderground v.1.15,2013-10-30 01:44:00,
2013-10-29 21:54:00,48.2,42.6,30.33,South,179,0.0,0.0,81,0.00,,,0.00,Wunderground v.1.15,2013-10-30 01:54:00,
2013-10-29 22:04:00,48.1,42.5,30.33,South,179,0.0,0.0,81,0.00,,,0.00,Wunderground v.1.15,2013-10-30 02:04:00,
2013-10-29 22:09:00,48.0,42.8,30.32,South,179,0.0,0.0,82,0.00,,,0.00,Wunderground v.1.15,2013-10-30 02:09:00,
2013-10-29 22:14:00,48.0,42.8,30.33,South,179,0.0,0.0,82,0.00,,,0.00,Wunderground v.1.15,2013-10-30 02:14:00,
2013-10-29 22:19:00,48.0,42.8,30.33,South,179,0.0,0.0,82,0.00,,,0.00,Wunderground v.1.15,2013-10-30 02:19:00,
2013-10-29 22:24:00,47.9,42.7,30.33,South,179,0.0,0.0,82,0.00,,,0.00,Wunderground v.1.15,2013-10-30 02:24:00,
2013-10-29 22:29:00,47.8,42.6,30.33,South,179,0.0,0.0,82,0.00,,,0.00,Wunderground v.1.15,2013-10-30 02:29:00,
2013-10-29 22:39:00,47.7,42.8,30.33,South,179,0.0,0.0,83,0.00,,,0.00,Wunderground v.1.15,2013-10-30 02:39:00,
2013-10-29 22:44:00,47.8,42.9,30.33,South,179,0.0,0.0,83,0.00,,,0.00,Wunderground v.1.15,2013-10-30 02:44:00,
2013-10-29 22:49:00,47.8,42.9,30.33,South,179,0.0,0.0,83,0.00,,,0.00,Wunderground v.1.15,2013-10-30 02:49:00,
2013-10-29 22:54:00,47.8,42.9,30.34,South,179,0.0,0.0,83,0.00,,,0.00,Wunderground v.1.15,2013-10-30 02:54:00,
2013-10-29 22:59:00,47.7,42.8,30.33,South,179,0.0,0.0,83,0.00,,,0.00,Wunderground v.1.15,2013-10-30 02:59:00,
2013-10-29 23:04:00,47.7,42.8,30.33,South,179,0.0,0.0,83,0.00,,,0.00,Wunderground v.1.15,2013-10-30 03:04:00,
2013-10-29 23:14:00,47.9,43.3,30.34,South,179,1.0,2.0,84,0.00,,,0.00,Wunderground v.1.15,2013-10-30 03:14:00,
2013-10-29 23:19:00,48.5,43.9,30.33,South,179,3.0,5.0,84,0.00,,,0.00,Wunderground v.1.15,2013-10-30 03:19:00,
2013-10-29 23:24:00,48.7,43.8,30.33,South,179,4.0,5.0,83,0.00,,,0.00,Wunderground v.1.15,2013-10-30 03:24:00,
2013-10-29 23:34:00,48.8,43.9,30.32,South,179,5.0,7.0,83,0.00,,,0.00,Wunderground v.1.15,2013-10-30 03:34:00,
2013-10-29 23:39:00,49.0,44.1,30.32,South,180,5.0,5.0,83,0.00,,,0.00,Wunderground v.1.15,2013-10-30 03:39:00,
2013-10-29 23:44:00,49.1,44.2,30.32,South,180,4.0,5.0,83,0.00,,,0.00,Wunderground v.1.15,2013-10-30 03:44:00,
2013-10-29 23:49:00,48.9,43.6,30.32,South,180,3.0,4.0,82,0.00,,,0.00,Wunderground v.1.15,2013-10-30 03:49:00,
2013-10-29 23:59:00,48.7,43.8,30.31,South,180,3.0,3.0,83,0.00,,,0.00,Wunderground v.1.15,2013-10-30 03:59:00,